Time,TemperatureF,DewpointF,PressureIn,WindDirection,WindDirectionDegrees,WindSpeedMPH,WindSpeedGustMPH,Humidity,HourlyPrecipIn,Conditions,Clouds,dailyrainin,SolarRadiationWatts/m^2,SoftwareType,DateUTC
2013-05-10 00:02:00,71.0,65.0,-100.00,South,174,4.0,10.0,80,0.00,,,0.00,0.000000,,2013-05-10 05:02:00,
2013-05-10 00:12:00,71.0,65.0,-100.00,South,174,4.0,10.0,80,0.00,,,0.00,0.000000,,2013-05-10 05:12:00,
2013-05-10 00:22:00,71.0,65.0,-100.00,South,174,4.0,10.0,80,0.00,,,0.00,0.000000,,2013-05-10 05:22:00,
2013-05-10 00:52:00,71.0,66.0,-100.00,SSE,167,5.0,12.0,84,0.00,,,0.00,0.000000,,2013-05-10 05:52:00,
2013-05-10 01:01:00,71.0,66.0,-100.00,SSE,167,5.0,12.0,84,0.00,,,0.00,0.000000,,2013-05-10 06:01:00,
2013-05-10 01:12:00,71.0,66.0,-100.00,SSE,167,5.0,12.0,84,0.00,,,0.00,0.000000,,2013-05-10 06:12:00,
2013-05-10 01:21:00,71.0,66.0,-100.00,SSE,167,5.0,12.0,84,0.00,,,0.00,0.000000,,2013-05-10 06:21:00,
2013-05-10 01:52:00,71.0,67.0,-100.00,South,184,4.0,10.0,86,0.00,,,0.00,0.000000,,2013-05-10 06:52:00,
2013-05-10 02:02:00,71.0,67.0,-100.00,South,184,4.0,10.0,86,0.00,,,0.00,0.000000,,2013-05-10 07:02:00,
2013-05-10 02:12:00,71.0,67.0,-100.00,South,184,4.0,10.0,86,0.00,,,0.00,0.000000,,2013-05-10 07:12:00,
2013-05-10 02:22:00,71.0,67.0,-100.00,South,184,4.0,10.0,86,0.00,,,0.00,0.000000,,2013-05-10 07:22:00,
2013-05-10 02:42:00,70.0,67.0,-100.00,SSE,166,4.0,10.0,89,0.00,,,0.00,0.000000,,2013-05-10 07:42:00,
2013-05-10 02:52:00,70.0,67.0,-100.00,SSE,166,4.0,10.0,89,0.00,,,0.00,0.000000,,2013-05-10 07:52:00,
2013-05-10 03:02:00,70.0,67.0,-100.00,SSE,166,4.0,10.0,89,0.00,,,0.00,0.000000,,2013-05-10 08:02:00,
2013-05-10 03:12:00,70.0,67.0,-100.00,SSE,166,4.0,10.0,89,0.00,,,0.00,0.000000,,2013-05-10 08:12:00,
2013-05-10 03:22:00,70.0,67.0,-100.00,SSE,166,4.0,10.0,89,0.00,,,0.00,0.000000,,2013-05-10 08:22:00,
2013-05-10 03:52:00,71.0,67.0,-100.00,SSE,166,4.0,9.0,88,0.00,,,0.00,0.000000,,2013-05-10 08:52:00,
2013-05-10 04:01:00,71.0,67.0,-100.00,SSE,166,4.0,9.0,88,0.00,,,0.00,0.000000,,2013-05-10 09:01:00,
2013-05-10 04:11:00,71.0,67.0,-100.00,SSE,166,4.0,9.0,88,0.00,,,0.00,0.000000,,2013-05-10 09:11:00,
2013-05-10 04:21:00,71.0,67.0,-100.00,SSE,166,4.0,9.0,88,0.00,,,0.00,0.000000,,2013-05-10 09:21:00,
2013-05-10 04:52:00,71.0,67.0,-100.00,South,176,4.0,10.0,87,0.00,,,0.00,0.000000,,2013-05-10 09:52:00,
2013-05-10 05:03:00,71.0,67.0,-100.00,South,176,4.0,10.0,87,0.00,,,0.00,0.000000,,2013-05-10 10:03:00,
2013-05-10 05:12:00,71.0,67.0,-100.00,South,176,4.0,10.0,87,0.00,,,0.00,0.000000,,2013-05-10 10:12:00,
2013-05-10 05:23:00,71.0,67.0,-100.00,South,176,4.0,10.0,87,0.00,,,0.00,0.000000,,2013-05-10 10:23:00,
2013-05-10 05:53:00,71.0,67.0,-100.00,South,172,5.0,12.0,86,0.00,,,0.00,0.000000,,2013-05-10 10:53:00,
2013-05-10 06:02:00,71.0,67.0,-100.00,South,172,5.0,12.0,86,0.00,,,0.00,0.000000,,2013-05-10 11:02:00,
2013-05-10 06:12:00,71.0,67.0,-100.00,South,172,5.0,12.0,86,0.00,,,0.00,0.000000,,2013-05-10 11:12:00,
2013-05-10 06:22:00,71.0,67.0,-100.00,South,172,5.0,12.0,86,0.00,,,0.00,0.000000,,2013-05-10 11:22:00,
2013-05-10 08:52:00,71.0,68.0,-100.00,SSE,165,2.0,7.0,89,-99.99,,,0.00,6.000000,,2013-05-10 13:52:00,
2013-05-10 09:02:00,71.0,68.0,-100.00,SSE,165,2.0,7.0,89,-99.99,,,0.00,6.000000,,2013-05-10 14:02:00,
2013-05-10 09:11:00,71.0,68.0,-100.00,SSE,165,2.0,7.0,89,-99.99,,,0.00,6.000000,,2013-05-10 14:11:00,
2013-05-10 09:21:00,71.0,68.0,-100.00,SSE,165,2.0,7.0,89,-99.99,,,0.00,6.000000,,2013-05-10 14:21:00,
2013-05-10 09:52:00,70.0,68.0,-100.00,NW,314,3.0,5.0,94,0.02,,,-99.99,9.000000,,2013-05-10 14:52:00,
2013-05-10 10:02:00,70.0,68.0,-100.00,NW,314,3.0,5.0,94,0.02,,,-99.99,9.000000,,2013-05-10 15:02:00,
2013-05-10 10:20:00,-999.0,-99.9,-100.00,NW,314,3.0,5.0,94,0.02,,,-99.99,9.000000,,2013-05-10 15:20:00,
2013-05-10 10:53:00,69.0,68.0,-100.00,SE,128,3.0,7.0,95,0.23,,,0.25,7.000000,,2013-05-10 15:53:00,
2013-05-10 11:02:00,69.0,68.0,-100.00,SE,128,3.0,7.0,95,0.23,,,0.25,7.000000,,2013-05-10 16:02:00,
2013-05-10 11:12:00,69.0,68.0,-100.00,SE,128,3.0,7.0,95,0.23,,,0.25,7.000000,,2013-05-10 16:12:00,
2013-05-10 11:23:00,69.0,68.0,-100.00,SE,128,3.0,7.0,95,0.23,,,0.25,7.000000,,2013-05-10 16:23:00,
2013-05-10 11:53:00,66.0,64.0,-100.00,SSE,168,9.0,17.0,92,0.29,,,0.54,18.000000,,2013-05-10 16:53:00,
2013-05-10 12:02:00,66.0,64.0,-100.00,SSE,168,9.0,17.0,92,0.29,,,0.54,18.000000,,2013-05-10 17:02:00,
2013-05-10 12:12:00,66.0,64.0,-100.00,SSE,168,9.0,17.0,92,0.29,,,0.54,18.000000,,2013-05-10 17:12:00,
2013-05-10 12:22:00,66.0,64.0,-100.00,SSE,168,9.0,17.0,92,0.29,,,0.54,18.000000,,2013-05-10 17:22:00,
2013-05-10 12:52:00,68.0,62.0,-100.00,South,181,7.0,25.0,80,0.07,,,0.61,63.000000,,2013-05-10 17:52:00,
2013-05-10 13:10:00,-999.0,-99.9,-100.00,South,181,7.0,25.0,80,0.07,,,0.61,63.000000,,2013-05-10 18:10:00,
2013-05-10 13:22:00,68.0,62.0,-100.00,South,181,7.0,25.0,80,0.07,,,0.61,63.000000,,2013-05-10 18:22:00,
2013-05-10 13:54:00,71.0,61.0,-100.00,South,188,7.0,20.0,71,0.00,,,0.61,221.000000,,2013-05-10 18:54:00,
2013-05-10 14:02:00,71.0,61.0,-100.00,South,188,7.0,20.0,71,0.00,,,0.61,221.000000,,2013-05-10 19:02:00,
2013-05-10 14:11:00,71.0,61.0,-100.00,South,188,7.0,20.0,71,0.00,,,0.61,221.000000,,2013-05-10 19:11:00,
2013-05-10 14:21:00,71.0,61.0,-100.00,South,188,7.0,20.0,71,0.00,,,0.61,221.000000,,2013-05-10 19:21:00,
2013-05-10 14:52:00,74.0,62.0,-100.00,South,191,7.0,15.0,66,0.00,,,0.61,333.000000,,2013-05-10 19:52:00,
2013-05-10 15:01:00,74.0,62.0,-100.00,South,191,7.0,15.0,66,0.00,,,0.61,333.000000,,2013-05-10 20:01:00,
2013-05-10 15:12:00,74.0,62.0,-100.00,South,191,7.0,15.0,66,0.00,,,0.61,333.000000,,2013-05-10 20:12:00,
2013-05-10 15:21:00,74.0,62.0,-100.00,South,191,7.0,15.0,66,0.00,,,0.61,333.000000,,2013-05-10 20:21:00,
2013-05-10 15:25:00,73.0,62.0,-100.00,WSW,254,6.0,13.0,69,0.00,,,0.61,309.000000,,2013-05-10 20:25:00,
2013-05-10 15:52:00,73.0,62.0,-100.00,WSW,254,6.0,13.0,69,0.00,,,0.61,309.000000,,2013-05-10 20:52:00,
2013-05-10 16:02:00,73.0,62.0,-100.00,WSW,254,6.0,13.0,69,0.00,,,0.61,309.000000,,2013-05-10 21:02:00,
2013-05-10 16:11:00,73.0,62.0,-100.00,WSW,254,6.0,13.0,69,0.00,,,0.61,309.000000,,2013-05-10 21:11:00,
2013-05-10 16:53:00,73.0,65.0,-100.00,West,265,5.0,12.0,75,0.00,,,0.61,227.000000,,2013-05-10 21:53:00,
2013-05-10 17:02:00,73.0,65.0,-100.00,West,265,5.0,12.0,75,0.00,,,0.61,227.000000,,2013-05-10 22:02:00,
2013-05-10 17:13:00,73.0,65.0,-100.00,West,265,5.0,12.0,75,0.00,,,0.61,227.000000,,2013-05-10 22:13:00,
2013-05-10 17:22:00,73.0,65.0,-100.00,West,265,5.0,12.0,75,0.00,,,0.61,227.000000,,2013-05-10 22:22:00,
2013-05-10 17:52:00,71.0,65.0,-100.00,West,266,5.0,13.0,81,0.00,,,0.61,160.000000,,2013-05-10 22:52:00,
2013-05-10 18:02:00,71.0,65.0,-100.00,West,266,5.0,13.0,81,0.00,,,0.61,160.000000,,2013-05-10 23:02:00,
2013-05-10 18:12:00,71.0,65.0,-100.00,West,266,5.0,13.0,81,0.00,,,0.61,160.000000,,2013-05-10 23:12:00,
2013-05-10 18:22:00,71.0,65.0,-100.00,West,266,5.0,13.0,81,0.00,,,0.61,160.000000,,2013-05-10 23:22:00,
2013-05-10 18:52:00,70.0,66.0,-100.00,West,260,5.0,9.0,87,0.00,,,0.61,59.000000,,2013-05-10 23:52:00,
2013-05-10 19:02:00,70.0,66.0,-100.00,West,260,5.0,9.0,87,0.00,,,0.61,59.000000,,2013-05-11 00:02:00,
2013-05-10 19:11:00,70.0,66.0,-100.00,West,260,5.0,9.0,87,0.00,,,0.61,59.000000,,2013-05-11 00:11:00,
2013-05-10 19:21:00,70.0,66.0,-100.00,West,260,5.0,9.0,87,0.00,,,0.61,59.000000,,2013-05-11 00:21:00,
2013-05-10 19:52:00,68.0,64.0,-100.00,WSW,241,6.0,13.0,88,0.01,,,-99.99,14.000000,,2013-05-11 00:52:00,
2013-05-10 20:01:00,68.0,64.0,-100.00,WSW,241,6.0,13.0,88,0.01,,,-99.99,14.000000,,2013-05-11 01:01:00,
2013-05-10 20:11:00,68.0,64.0,-100.00,WSW,241,6.0,13.0,88,0.01,,,-99.99,14.000000,,2013-05-11 01:11:00,
2013-05-10 20:21:00,68.0,64.0,-100.00,WSW,241,6.0,13.0,88,0.01,,,-99.99,14.000000,,2013-05-11 01:21:00,
2013-05-10 20:52:00,67.0,65.0,-100.00,ESE,109,3.0,12.0,93,0.01,,,0.63,0.000000,,2013-05-11 01:52:00,
2013-05-10 21:02:00,67.0,65.0,-100.00,ESE,109,3.0,12.0,93,0.01,,,0.63,0.000000,,2013-05-11 02:02:00,
2013-05-10 21:11:00,67.0,65.0,-100.00,ESE,109,3.0,12.0,93,0.01,,,0.63,0.000000,,2013-05-11 02:11:00,
2013-05-10 21:22:00,67.0,65.0,-100.00,ESE,109,3.0,12.0,93,0.01,,,0.63,0.000000,,2013-05-11 02:22:00,
2013-05-10 21:52:00,67.0,65.0,-100.00,South,174,4.0,14.0,93,0.00,,,0.63,0.000000,,2013-05-11 02:52:00,
2013-05-10 22:01:00,67.0,65.0,-100.00,South,174,4.0,14.0,93,0.00,,,0.63,0.000000,,2013-05-11 03:01:00,
2013-05-10 22:11:00,67.0,65.0,-100.00,South,174,4.0,14.0,93,0.00,,,0.63,0.000000,,2013-05-11 03:11:00,
2013-05-10 22:21:00,67.0,65.0,-100.00,South,174,4.0,14.0,93,0.00,,,0.63,0.000000,,2013-05-11 03:21:00,
2013-05-10 22:53:00,66.0,64.0,-100.00,WNW,292,0.0,9.0,93,0.00,,,0.63,0.000000,,2013-05-11 03:53:00,
2013-05-10 23:03:00,66.0,64.0,-100.00,WNW,292,0.0,9.0,93,0.00,,,0.63,0.000000,,2013-05-11 04:03:00,
2013-05-10 23:12:00,66.0,64.0,-100.00,WNW,292,0.0,9.0,93,0.00,,,0.63,0.000000,,2013-05-11 04:12:00,
2013-05-10 23:23:00,66.0,64.0,-100.00,WNW,292,0.0,9.0,93,0.00,,,0.63,0.000000,,2013-05-11 04:23:00,
2013-05-10 23:52:00,65.0,64.0,-100.00,NNW,339,3.0,5.0,95,0.00,,,0.63,0.000000,,2013-05-11 04:52:00,